East Brunswick, NJ - U.S.A.

40° 26' 15"N, 74° 23' 24"W, Elevation 138 ft.

Friday, October 31, 2014
7:06:00 AM (Eastern)

304th day of the year

Updated and refreshed every 2 minutes. Weather computer in use: Davis Vantage PRO2 Plus


Current Weather:

Current Today's Highs and Lows
Temperature 35.3°F (1.8°C) ↓ 41.0° 12:00 AM
35.3° 6:36 AM
Dew Point 32.3°F (0.1°C) ↓ 33.5° 12:10 AM
32.0° 6:36 AM
Humidity 89% ↑ 89% 6:37 AM
74% 12:00 AM
Wind Gust NW 0 mph NW 5 5:00 AM
NW 0 12:00 AM
Wind Speed NW 0 mph
Calm (0)
NW 0 5:00 AM
NW 0 12:00 AM
Precipitation 0.00" (0.00 mm) 1
Last 24 hours 0.00"
Instantaneous rate 0.00"/hr
Storm total 0.00"
0.00"2 12:00 AM
0.00"2 12:00 AM
Barometer 29.998" (1015.9 mb)
Steady
30.004" 12:00 AM
29.983" 3:44 AM
Wind Chill Gust 35°F (2°C) 41° 12:00 AM
32° 5:00 AM
Wind Chill Avg 35°F (2°C) 41° 12:00 AM
35° 6:36 AM
Heat Index 35°F (1.7°C) 41° 12:00 AM
35° 5:49 AM
Sunshine 0 W/m2
Sunshine minutes 0
0 12:00 AM
0 12:00 AM
UV Index  0.0 0.0 12:00 AM
0.0 12:00 AM
1. Daily total rainfall.
2. Maximum and minimum rainfall are the instantaneous rainfall rates.

'KEBR' METAR REPORT:

METAR KEBR 311106Z AUTO 000000KT 02/00 A3000 RMK AO1 SLP159 T00180001 

Yesterday's Weather and More...

Webcam
EBWeather Image

Video - Last 3 Hours

Video - Yesterday

Video - Last 3 Days

NJ Region Surface Map
NJ Sfc Map

Weather Data from East Brunswick, NJ

Data generated by WxSolution Version 1.8.7, Build 2013.11.03.